sensor_id;sensor_type;location;lat;lon;timestamp;P1;durP1;ratioP1;P2;durP2;ratioP2
52368;SDS011;38298;50.346;3.526;2022-11-11T00:01:09;10.95;;;5.03;;
52368;SDS011;38298;50.346;3.526;2022-11-11T00:03:36;10.05;;;4.38;;
52368;SDS011;38298;50.346;3.526;2022-11-11T00:06:03;10.13;;;4.70;;
52368;SDS011;38298;50.346;3.526;2022-11-11T00:08:29;11.75;;;5.22;;
52368;SDS011;38298;50.346;3.526;2022-11-11T00:11:13;13.65;;;5.47;;
52368;SDS011;38298;50.346;3.526;2022-11-11T00:13:40;11.27;;;5.65;;
52368;SDS011;38298;50.346;3.526;2022-11-11T00:16:07;12.82;;;4.80;;
52368;SDS011;38298;50.346;3.526;2022-11-11T00:18:34;10.02;;;5.10;;
52368;SDS011;38298;50.346;3.526;2022-11-11T00:21:19;9.80;;;5.70;;
52368;SDS011;38298;50.346;3.526;2022-11-11T00:24:29;11.10;;;5.45;;
52368;SDS011;38298;50.346;3.526;2022-11-11T00:27:14;17.33;;;5.97;;
52368;SDS011;38298;50.346;3.526;2022-11-11T00:29:44;10.60;;;5.57;;
52368;SDS011;38298;50.346;3.526;2022-11-11T00:32:11;9.32;;;5.63;;
52368;SDS011;38298;50.346;3.526;2022-11-11T00:34:55;12.90;;;5.38;;
52368;SDS011;38298;50.346;3.526;2022-11-11T00:37:41;13.77;;;5.28;;
52368;SDS011;38298;50.346;3.526;2022-11-11T00:40:07;10.30;;;5.57;;
52368;SDS011;38298;50.346;3.526;2022-11-11T00:42:33;10.82;;;5.63;;
52368;SDS011;38298;50.346;3.526;2022-11-11T00:44:59;12.23;;;5.80;;
52368;SDS011;38298;50.346;3.526;2022-11-11T00:47:25;13.45;;;5.70;;
52368;SDS011;38298;50.346;3.526;2022-11-11T00:50:21;13.73;;;5.60;;
52368;SDS011;38298;50.346;3.526;2022-11-11T00:53:13;14.18;;;5.50;;
52368;SDS011;38298;50.346;3.526;2022-11-11T00:55:40;11.38;;;5.32;;
52368;SDS011;38298;50.346;3.526;2022-11-11T00:58:06;9.32;;;5.40;;
52368;SDS011;38298;50.346;3.526;2022-11-11T01:00:35;11.70;;;5.32;;
52368;SDS011;38298;50.346;3.526;2022-11-11T01:03:01;15.65;;;6.22;;
52368;SDS011;38298;50.346;3.526;2022-11-11T01:05:27;12.88;;;5.38;;
52368;SDS011;38298;50.346;3.526;2022-11-11T01:07:53;14.60;;;5.20;;
52368;SDS011;38298;50.346;3.526;2022-11-11T01:10:20;9.05;;;5.18;;
52368;SDS011;38298;50.346;3.526;2022-11-11T01:13:06;15.07;;;5.90;;
52368;SDS011;38298;50.346;3.526;2022-11-11T01:15:42;11.25;;;5.80;;
52368;SDS011;38298;50.346;3.526;2022-11-11T01:18:09;10.82;;;6.03;;
52368;SDS011;38298;50.346;3.526;2022-11-11T01:20:35;9.82;;;5.63;;
52368;SDS011;38298;50.346;3.526;2022-11-11T01:23:05;9.80;;;5.90;;
52368;SDS011;38298;50.346;3.526;2022-11-11T01:25:34;11.95;;;5.60;;
52368;SDS011;38298;50.346;3.526;2022-11-11T01:28:01;11.82;;;5.80;;
52368;SDS011;38298;50.346;3.526;2022-11-11T01:30:27;10.70;;;5.57;;
52368;SDS011;38298;50.346;3.526;2022-11-11T01:32:54;11.75;;;5.65;;
52368;SDS011;38298;50.346;3.526;2022-11-11T01:35:20;8.80;;;5.60;;
52368;SDS011;38298;50.346;3.526;2022-11-11T01:37:46;10.10;;;5.97;;
52368;SDS011;38298;50.346;3.526;2022-11-11T01:40:12;11.23;;;5.55;;
52368;SDS011;38298;50.346;3.526;2022-11-11T01:42:47;11.75;;;6.55;;
52368;SDS011;38298;50.346;3.526;2022-11-11T01:47:58;11.75;;;5.57;;
52368;SDS011;38298;50.346;3.526;2022-11-11T01:50:43;12.65;;;5.82;;
52368;SDS011;38298;50.346;3.526;2022-11-11T01:53:09;10.50;;;5.72;;
52368;SDS011;38298;50.346;3.526;2022-11-11T01:55:35;12.00;;;6.07;;
52368;SDS011;38298;50.346;3.526;2022-11-11T01:58:08;10.38;;;5.65;;
52368;SDS011;38298;50.346;3.526;2022-11-11T02:00:36;13.25;;;6.25;;
52368;SDS011;38298;50.346;3.526;2022-11-11T02:03:06;10.68;;;6.20;;
52368;SDS011;38298;50.346;3.526;2022-11-11T02:05:34;14.93;;;6.20;;
52368;SDS011;38298;50.346;3.526;2022-11-11T02:08:18;10.52;;;5.90;;
52368;SDS011;38298;50.346;3.526;2022-11-11T02:11:13;13.80;;;5.78;;
52368;SDS011;38298;50.346;3.526;2022-11-11T02:13:40;11.48;;;6.07;;
52368;SDS011;38298;50.346;3.526;2022-11-11T02:16:25;14.55;;;6.10;;
52368;SDS011;38298;50.346;3.526;2022-11-11T02:18:52;16.08;;;5.93;;
52368;SDS011;38298;50.346;3.526;2022-11-11T02:21:36;11.95;;;6.28;;
52368;SDS011;38298;50.346;3.526;2022-11-11T02:24:06;14.38;;;6.30;;
52368;SDS011;38298;50.346;3.526;2022-11-11T02:26:33;12.00;;;5.57;;
52368;SDS011;38298;50.346;3.526;2022-11-11T02:29:00;10.13;;;5.72;;
52368;SDS011;38298;50.346;3.526;2022-11-11T02:31:28;11.55;;;5.88;;
52368;SDS011;38298;50.346;3.526;2022-11-11T02:33:54;14.07;;;6.63;;
52368;SDS011;38298;50.346;3.526;2022-11-11T02:36:20;13.45;;;5.80;;
52368;SDS011;38298;50.346;3.526;2022-11-11T02:38:46;10.85;;;5.80;;
52368;SDS011;38298;50.346;3.526;2022-11-11T02:41:13;11.90;;;5.47;;
52368;SDS011;38298;50.346;3.526;2022-11-11T02:43:57;14.50;;;5.85;;
52368;SDS011;38298;50.346;3.526;2022-11-11T02:46:23;11.02;;;5.95;;
52368;SDS011;38298;50.346;3.526;2022-11-11T02:48:49;14.25;;;6.00;;
52368;SDS011;38298;50.346;3.526;2022-11-11T02:51:15;12.32;;;5.43;;
52368;SDS011;38298;50.346;3.526;2022-11-11T02:53:41;12.85;;;6.13;;
52368;SDS011;38298;50.346;3.526;2022-11-11T02:56:07;8.75;;;5.80;;
52368;SDS011;38298;50.346;3.526;2022-11-11T02:58:33;14.38;;;6.15;;
52368;SDS011;38298;50.346;3.526;2022-11-11T03:00:59;11.98;;;5.22;;
52368;SDS011;38298;50.346;3.526;2022-11-11T03:03:25;11.10;;;5.75;;
52368;SDS011;38298;50.346;3.526;2022-11-11T03:05:51;11.88;;;5.90;;
52368;SDS011;38298;50.346;3.526;2022-11-11T03:08:17;12.05;;;5.57;;
52368;SDS011;38298;50.346;3.526;2022-11-11T03:10:43;13.93;;;6.53;;
52368;SDS011;38298;50.346;3.526;2022-11-11T03:13:09;10.88;;;6.38;;
52368;SDS011;38298;50.346;3.526;2022-11-11T03:15:35;11.52;;;6.32;;
52368;SDS011;38298;50.346;3.526;2022-11-11T03:18:01;10.73;;;5.88;;
52368;SDS011;38298;50.346;3.526;2022-11-11T03:20:28;8.73;;;5.60;;
52368;SDS011;38298;50.346;3.526;2022-11-11T03:23:13;14.02;;;5.82;;
52368;SDS011;38298;50.346;3.526;2022-11-11T03:25:40;17.55;;;5.93;;
52368;SDS011;38298;50.346;3.526;2022-11-11T03:28:10;11.38;;;5.57;;
52368;SDS011;38298;50.346;3.526;2022-11-11T03:30:38;12.10;;;6.03;;
52368;SDS011;38298;50.346;3.526;2022-11-11T03:33:04;11.07;;;5.78;;
52368;SDS011;38298;50.346;3.526;2022-11-11T03:35:31;16.30;;;7.07;;
52368;SDS011;38298;50.346;3.526;2022-11-11T03:37:57;10.70;;;6.13;;
52368;SDS011;38298;50.346;3.526;2022-11-11T03:40:43;16.58;;;6.22;;
52368;SDS011;38298;50.346;3.526;2022-11-11T03:43:09;9.85;;;5.15;;
52368;SDS011;38298;50.346;3.526;2022-11-11T03:45:35;14.32;;;5.80;;
52368;SDS011;38298;50.346;3.526;2022-11-11T03:48:01;14.93;;;7.65;;
52368;SDS011;38298;50.346;3.526;2022-11-11T03:50:27;9.40;;;5.75;;
52368;SDS011;38298;50.346;3.526;2022-11-11T03:52:53;11.20;;;6.22;;
52368;SDS011;38298;50.346;3.526;2022-11-11T03:55:19;10.73;;;5.50;;
52368;SDS011;38298;50.346;3.526;2022-11-11T03:57:45;10.50;;;5.95;;
52368;SDS011;38298;50.346;3.526;2022-11-11T04:00:12;8.93;;;6.07;;
52368;SDS011;38298;50.346;3.526;2022-11-11T04:02:39;13.82;;;6.72;;
52368;SDS011;38298;50.346;3.526;2022-11-11T04:05:23;14.45;;;6.80;;
52368;SDS011;38298;50.346;3.526;2022-11-11T04:08:11;11.90;;;6.63;;
52368;SDS011;38298;50.346;3.526;2022-11-11T04:10:57;9.15;;;6.13;;
52368;SDS011;38298;50.346;3.526;2022-11-11T04:13:24;14.65;;;6.15;;
52368;SDS011;38298;50.346;3.526;2022-11-11T04:16:09;9.00;;;5.90;;
52368;SDS011;38298;50.346;3.526;2022-11-11T04:18:35;11.70;;;6.47;;
52368;SDS011;38298;50.346;3.526;2022-11-11T04:21:20;12.82;;;6.43;;
52368;SDS011;38298;50.346;3.526;2022-11-11T04:24:05;12.10;;;6.88;;
52368;SDS011;38298;50.346;3.526;2022-11-11T04:26:50;12.13;;;6.95;;
52368;SDS011;38298;50.346;3.526;2022-11-11T04:29:16;13.95;;;7.43;;
52368;SDS011;38298;50.346;3.526;2022-11-11T04:34:39;10.43;;;6.05;;
52368;SDS011;38298;50.346;3.526;2022-11-11T04:37:05;12.63;;;6.53;;
52368;SDS011;38298;50.346;3.526;2022-11-11T04:39:31;14.57;;;6.68;;
52368;SDS011;38298;50.346;3.526;2022-11-11T04:42:16;16.38;;;6.55;;
52368;SDS011;38298;50.346;3.526;2022-11-11T04:44:42;11.15;;;6.25;;
52368;SDS011;38298;50.346;3.526;2022-11-11T04:47:27;11.38;;;6.55;;
52368;SDS011;38298;50.346;3.526;2022-11-11T04:49:53;11.98;;;6.32;;
52368;SDS011;38298;50.346;3.526;2022-11-11T04:52:19;14.25;;;7.25;;
52368;SDS011;38298;50.346;3.526;2022-11-11T04:54:51;15.50;;;6.90;;
52368;SDS011;38298;50.346;3.526;2022-11-11T04:57:43;15.02;;;6.55;;
52368;SDS011;38298;50.346;3.526;2022-11-11T05:00:10;8.93;;;5.88;;
52368;SDS011;38298;50.346;3.526;2022-11-11T05:02:36;11.70;;;6.43;;
52368;SDS011;38298;50.346;3.526;2022-11-11T05:05:22;12.85;;;6.47;;
52368;SDS011;38298;50.346;3.526;2022-11-11T05:07:48;12.98;;;6.22;;
52368;SDS011;38298;50.346;3.526;2022-11-11T05:10:32;11.95;;;5.47;;
52368;SDS011;38298;50.346;3.526;2022-11-11T05:12:59;9.40;;;5.38;;
52368;SDS011;38298;50.346;3.526;2022-11-11T05:15:43;11.65;;;5.75;;
52368;SDS011;38298;50.346;3.526;2022-11-11T05:18:28;13.30;;;5.57;;
52368;SDS011;38298;50.346;3.526;2022-11-11T05:21:14;14.85;;;6.20;;
52368;SDS011;38298;50.346;3.526;2022-11-11T05:23:48;9.73;;;5.88;;
52368;SDS011;38298;50.346;3.526;2022-11-11T05:26:33;11.15;;;5.43;;
52368;SDS011;38298;50.346;3.526;2022-11-11T05:28:59;10.40;;;4.85;;
52368;SDS011;38298;50.346;3.526;2022-11-11T05:31:25;10.25;;;5.28;;
52368;SDS011;38298;50.346;3.526;2022-11-11T05:33:51;10.18;;;5.45;;
52368;SDS011;38298;50.346;3.526;2022-11-11T05:36:17;16.88;;;4.88;;
52368;SDS011;38298;50.346;3.526;2022-11-11T05:38:43;11.20;;;5.75;;
52368;SDS011;38298;50.346;3.526;2022-11-11T05:41:09;13.05;;;5.03;;
52368;SDS011;38298;50.346;3.526;2022-11-11T05:43:35;9.55;;;5.10;;
52368;SDS011;38298;50.346;3.526;2022-11-11T05:46:01;8.25;;;5.10;;
52368;SDS011;38298;50.346;3.526;2022-11-11T05:48:29;10.13;;;4.93;;
52368;SDS011;38298;50.346;3.526;2022-11-11T05:50:56;12.25;;;5.10;;
52368;SDS011;38298;50.346;3.526;2022-11-11T05:53:22;9.05;;;4.97;;
52368;SDS011;38298;50.346;3.526;2022-11-11T05:55:49;10.30;;;4.93;;
52368;SDS011;38298;50.346;3.526;2022-11-11T05:58:18;9.38;;;4.47;;
52368;SDS011;38298;50.346;3.526;2022-11-11T06:00:44;7.57;;;4.78;;
52368;SDS011;38298;50.346;3.526;2022-11-11T06:03:10;10.15;;;4.78;;
52368;SDS011;38298;50.346;3.526;2022-11-11T06:05:36;8.70;;;5.45;;
52368;SDS011;38298;50.346;3.526;2022-11-11T06:08:02;10.15;;;5.28;;
52368;SDS011;38298;50.346;3.526;2022-11-11T06:10:29;11.90;;;4.60;;
52368;SDS011;38298;50.346;3.526;2022-11-11T06:12:55;14.02;;;6.15;;
52368;SDS011;38298;50.346;3.526;2022-11-11T06:15:34;9.07;;;4.25;;
52368;SDS011;38298;50.346;3.526;2022-11-11T06:18:00;10.63;;;4.38;;
52368;SDS011;38298;50.346;3.526;2022-11-11T06:20:26;12.68;;;5.00;;
52368;SDS011;38298;50.346;3.526;2022-11-11T06:22:52;9.40;;;4.57;;
52368;SDS011;38298;50.346;3.526;2022-11-11T06:25:28;10.70;;;4.50;;
52368;SDS011;38298;50.346;3.526;2022-11-11T06:28:14;9.70;;;4.53;;
52368;SDS011;38298;50.346;3.526;2022-11-11T06:30:43;12.02;;;5.18;;
52368;SDS011;38298;50.346;3.526;2022-11-11T06:33:10;9.60;;;4.53;;
52368;SDS011;38298;50.346;3.526;2022-11-11T06:35:36;13.18;;;4.78;;
52368;SDS011;38298;50.346;3.526;2022-11-11T06:38:03;7.53;;;4.55;;
52368;SDS011;38298;50.346;3.526;2022-11-11T06:40:29;7.70;;;4.13;;
52368;SDS011;38298;50.346;3.526;2022-11-11T06:42:56;7.88;;;3.85;;
52368;SDS011;38298;50.346;3.526;2022-11-11T06:45:22;9.13;;;4.10;;
52368;SDS011;38298;50.346;3.526;2022-11-11T06:47:49;8.25;;;4.07;;
52368;SDS011;38298;50.346;3.526;2022-11-11T06:50:15;12.00;;;4.55;;
52368;SDS011;38298;50.346;3.526;2022-11-11T06:52:41;8.02;;;3.90;;
52368;SDS011;38298;50.346;3.526;2022-11-11T06:55:07;7.43;;;4.13;;
52368;SDS011;38298;50.346;3.526;2022-11-11T06:57:33;7.47;;;4.28;;
52368;SDS011;38298;50.346;3.526;2022-11-11T06:59:59;10.38;;;4.20;;
52368;SDS011;38298;50.346;3.526;2022-11-11T07:02:25;6.38;;;3.63;;
52368;SDS011;38298;50.346;3.526;2022-11-11T07:04:51;9.43;;;4.00;;
52368;SDS011;38298;50.346;3.526;2022-11-11T07:07:17;11.75;;;4.63;;
52368;SDS011;38298;50.346;3.526;2022-11-11T07:09:43;8.15;;;3.83;;
52368;SDS011;38298;50.346;3.526;2022-11-11T07:12:09;13.32;;;4.32;;
52368;SDS011;38298;50.346;3.526;2022-11-11T07:14:35;8.32;;;4.13;;
52368;SDS011;38298;50.346;3.526;2022-11-11T07:17:01;13.00;;;4.47;;
52368;SDS011;38298;50.346;3.526;2022-11-11T07:19:27;8.07;;;3.80;;
52368;SDS011;38298;50.346;3.526;2022-11-11T07:21:53;10.50;;;4.03;;
52368;SDS011;38298;50.346;3.526;2022-11-11T07:24:19;9.27;;;4.40;;
52368;SDS011;38298;50.346;3.526;2022-11-11T07:26:45;8.43;;;3.88;;
52368;SDS011;38298;50.346;3.526;2022-11-11T07:29:11;6.85;;;4.07;;
52368;SDS011;38298;50.346;3.526;2022-11-11T07:31:39;7.57;;;3.70;;
52368;SDS011;38298;50.346;3.526;2022-11-11T07:34:05;6.78;;;3.47;;
52368;SDS011;38298;50.346;3.526;2022-11-11T07:36:31;6.75;;;3.50;;
52368;SDS011;38298;50.346;3.526;2022-11-11T07:38:57;7.75;;;3.63;;
52368;SDS011;38298;50.346;3.526;2022-11-11T07:41:23;8.77;;;3.60;;
52368;SDS011;38298;50.346;3.526;2022-11-11T07:43:49;9.05;;;3.50;;
52368;SDS011;38298;50.346;3.526;2022-11-11T07:46:15;3.80;;;2.88;;
52368;SDS011;38298;50.346;3.526;2022-11-11T07:48:41;9.77;;;3.50;;
52368;SDS011;38298;50.346;3.526;2022-11-11T07:51:07;8.77;;;3.83;;
52368;SDS011;38298;50.346;3.526;2022-11-11T07:53:33;5.78;;;3.10;;
52368;SDS011;38298;50.346;3.526;2022-11-11T07:55:59;8.57;;;3.35;;
52368;SDS011;38298;50.346;3.526;2022-11-11T07:58:25;6.72;;;3.58;;
52368;SDS011;38298;50.346;3.526;2022-11-11T08:00:51;7.45;;;2.95;;
52368;SDS011;38298;50.346;3.526;2022-11-11T08:03:17;9.05;;;3.20;;
52368;SDS011;38298;50.346;3.526;2022-11-11T08:05:43;10.20;;;3.47;;
52368;SDS011;38298;50.346;3.526;2022-11-11T08:08:09;9.68;;;3.90;;
52368;SDS011;38298;50.346;3.526;2022-11-11T08:10:35;6.00;;;3.60;;
52368;SDS011;38298;50.346;3.526;2022-11-11T08:13:02;8.68;;;4.28;;
52368;SDS011;38298;50.346;3.526;2022-11-11T08:15:46;8.15;;;4.07;;
52368;SDS011;38298;50.346;3.526;2022-11-11T08:18:12;11.27;;;4.00;;
52368;SDS011;38298;50.346;3.526;2022-11-11T08:20:39;9.65;;;4.07;;
52368;SDS011;38298;50.346;3.526;2022-11-11T08:23:05;8.98;;;4.38;;
52368;SDS011;38298;50.346;3.526;2022-11-11T08:25:34;10.90;;;4.30;;
52368;SDS011;38298;50.346;3.526;2022-11-11T08:28:02;10.80;;;4.60;;
52368;SDS011;38298;50.346;3.526;2022-11-11T08:30:28;9.63;;;4.13;;
52368;SDS011;38298;50.346;3.526;2022-11-11T08:33:01;5.43;;;4.00;;
52368;SDS011;38298;50.346;3.526;2022-11-11T08:35:28;7.28;;;3.88;;
52368;SDS011;38298;50.346;3.526;2022-11-11T08:37:54;7.55;;;3.95;;
52368;SDS011;38298;50.346;3.526;2022-11-11T08:40:20;6.72;;;3.80;;
52368;SDS011;38298;50.346;3.526;2022-11-11T08:42:46;7.00;;;3.42;;
52368;SDS011;38298;50.346;3.526;2022-11-11T08:45:12;8.90;;;3.83;;
52368;SDS011;38298;50.346;3.526;2022-11-11T08:47:38;7.38;;;3.65;;
52368;SDS011;38298;50.346;3.526;2022-11-11T08:50:05;5.80;;;3.72;;
52368;SDS011;38298;50.346;3.526;2022-11-11T08:52:31;7.63;;;4.03;;
52368;SDS011;38298;50.346;3.526;2022-11-11T08:54:57;7.68;;;4.20;;
52368;SDS011;38298;50.346;3.526;2022-11-11T08:57:24;7.03;;;3.85;;
52368;SDS011;38298;50.346;3.526;2022-11-11T08:59:50;8.20;;;4.07;;
52368;SDS011;38298;50.346;3.526;2022-11-11T09:02:16;6.65;;;3.95;;
52368;SDS011;38298;50.346;3.526;2022-11-11T09:04:42;10.93;;;4.90;;
52368;SDS011;38298;50.346;3.526;2022-11-11T09:07:09;8.43;;;4.25;;
52368;SDS011;38298;50.346;3.526;2022-11-11T09:09:35;7.35;;;3.60;;
52368;SDS011;38298;50.346;3.526;2022-11-11T09:12:01;8.07;;;3.78;;
52368;SDS011;38298;50.346;3.526;2022-11-11T09:14:27;8.13;;;3.40;;
52368;SDS011;38298;50.346;3.526;2022-11-11T09:16:54;8.00;;;3.58;;
52368;SDS011;38298;50.346;3.526;2022-11-11T09:19:20;9.68;;;3.88;;
52368;SDS011;38298;50.346;3.526;2022-11-11T09:21:46;7.03;;;3.20;;
52368;SDS011;38298;50.346;3.526;2022-11-11T09:24:12;6.32;;;3.70;;
52368;SDS011;38298;50.346;3.526;2022-11-11T09:26:38;8.55;;;3.60;;
52368;SDS011;38298;50.346;3.526;2022-11-11T09:29:04;5.97;;;3.53;;
52368;SDS011;38298;50.346;3.526;2022-11-11T09:31:30;4.75;;;3.20;;
52368;SDS011;38298;50.346;3.526;2022-11-11T09:33:56;5.35;;;3.05;;
52368;SDS011;38298;50.346;3.526;2022-11-11T09:36:22;4.55;;;3.03;;
52368;SDS011;38298;50.346;3.526;2022-11-11T09:38:48;6.32;;;2.78;;
52368;SDS011;38298;50.346;3.526;2022-11-11T09:41:27;6.68;;;3.30;;
52368;SDS011;38298;50.346;3.526;2022-11-11T09:43:58;5.35;;;3.10;;
52368;SDS011;38298;50.346;3.526;2022-11-11T09:46:35;4.70;;;2.75;;
52368;SDS011;38298;50.346;3.526;2022-11-11T09:51:57;4.50;;;2.80;;
52368;SDS011;38298;50.346;3.526;2022-11-11T09:54:36;5.47;;;3.30;;
52368;SDS011;38298;50.346;3.526;2022-11-11T09:57:07;6.55;;;3.40;;
52368;SDS011;38298;50.346;3.526;2022-11-11T09:59:40;8.00;;;4.15;;
52368;SDS011;38298;50.346;3.526;2022-11-11T10:02:11;5.47;;;3.70;;
52368;SDS011;38298;50.346;3.526;2022-11-11T10:07:12;6.70;;;3.10;;
52368;SDS011;38298;50.346;3.526;2022-11-11T10:09:43;5.93;;;3.17;;
52368;SDS011;38298;50.346;3.526;2022-11-11T10:12:14;5.32;;;3.83;;
52368;SDS011;38298;50.346;3.526;2022-11-11T10:14:46;9.40;;;4.68;;
52368;SDS011;38298;50.346;3.526;2022-11-11T10:24:45;6.70;;;3.80;;
52368;SDS011;38298;50.346;3.526;2022-11-11T10:27:15;7.07;;;3.87;;
52368;SDS011;38298;50.346;3.526;2022-11-11T10:29:42;6.85;;;3.88;;
52368;SDS011;38298;50.346;3.526;2022-11-11T10:32:10;9.73;;;4.85;;
52368;SDS011;38298;50.346;3.526;2022-11-11T10:34:43;9.45;;;5.07;;
52368;SDS011;38298;50.346;3.526;2022-11-11T10:37:33;12.73;;;6.57;;
52368;SDS011;38298;50.346;3.526;2022-11-11T10:40:12;10.40;;;6.10;;
52368;SDS011;38298;50.346;3.526;2022-11-11T10:42:40;9.05;;;4.93;;
52368;SDS011;38298;50.346;3.526;2022-11-11T10:45:11;8.63;;;4.57;;
52368;SDS011;38298;50.346;3.526;2022-11-11T10:48:00;9.45;;;4.63;;
52368;SDS011;38298;50.346;3.526;2022-11-11T10:50:32;7.35;;;4.25;;
52368;SDS011;38298;50.346;3.526;2022-11-11T11:01:01;8.35;;;4.88;;
52368;SDS011;38298;50.346;3.526;2022-11-11T11:03:30;7.00;;;5.05;;
52368;SDS011;38298;50.346;3.526;2022-11-11T11:05:58;7.70;;;4.75;;
52368;SDS011;38298;50.346;3.526;2022-11-11T11:08:41;11.60;;;7.18;;
52368;SDS011;38298;50.346;3.526;2022-11-11T11:11:13;15.13;;;8.77;;
52368;SDS011;38298;50.346;3.526;2022-11-11T11:13:42;10.85;;;6.88;;
52368;SDS011;38298;50.346;3.526;2022-11-11T11:16:12;12.55;;;6.50;;
52368;SDS011;38298;50.346;3.526;2022-11-11T11:18:39;9.23;;;5.57;;
52368;SDS011;38298;50.346;3.526;2022-11-11T11:21:06;8.95;;;5.50;;
52368;SDS011;38298;50.346;3.526;2022-11-11T11:26:04;9.13;;;5.20;;
52368;SDS011;38298;50.346;3.526;2022-11-11T11:28:30;8.07;;;4.80;;
52368;SDS011;38298;50.346;3.526;2022-11-11T11:31:02;5.85;;;4.28;;
52368;SDS011;38298;50.346;3.526;2022-11-11T11:36:17;7.93;;;4.00;;
52368;SDS011;38298;50.346;3.526;2022-11-11T11:38:44;9.57;;;4.43;;
52368;SDS011;38298;50.346;3.526;2022-11-11T11:41:16;8.93;;;4.43;;
52368;SDS011;38298;50.346;3.526;2022-11-11T11:43:43;7.10;;;4.60;;
52368;SDS011;38298;50.346;3.526;2022-11-11T11:48:52;9.38;;;5.03;;
52368;SDS011;38298;50.346;3.526;2022-11-11T11:51:35;7.45;;;4.75;;
52368;SDS011;38298;50.346;3.526;2022-11-11T11:56:53;10.02;;;5.25;;
52368;SDS011;38298;50.346;3.526;2022-11-11T11:59:25;7.97;;;4.70;;
52368;SDS011;38298;50.346;3.526;2022-11-11T12:07:26;10.45;;;5.50;;
52368;SDS011;38298;50.346;3.526;2022-11-11T12:09:58;10.25;;;5.35;;
52368;SDS011;38298;50.346;3.526;2022-11-11T12:17:44;7.97;;;4.55;;
52368;SDS011;38298;50.346;3.526;2022-11-11T12:27:46;7.70;;;3.80;;
52368;SDS011;38298;50.346;3.526;2022-11-11T12:30:15;7.30;;;3.80;;
52368;SDS011;38298;50.346;3.526;2022-11-11T12:35:25;6.40;;;3.22;;
52368;SDS011;38298;50.346;3.526;2022-11-11T12:40:51;7.10;;;3.42;;
52368;SDS011;38298;50.346;3.526;2022-11-11T12:48:53;7.00;;;3.10;;
52368;SDS011;38298;50.346;3.526;2022-11-11T12:56:51;7.07;;;3.17;;
52368;SDS011;38298;50.346;3.526;2022-11-11T12:59:23;5.63;;;3.10;;
52368;SDS011;38298;50.346;3.526;2022-11-11T13:01:54;4.65;;;2.67;;
52368;SDS011;38298;50.346;3.526;2022-11-11T13:17:03;4.20;;;2.90;;
52368;SDS011;38298;50.346;3.526;2022-11-11T13:22:05;6.95;;;3.30;;
52368;SDS011;38298;50.346;3.526;2022-11-11T13:24:32;7.07;;;2.80;;
52368;SDS011;38298;50.346;3.526;2022-11-11T13:27:01;7.72;;;4.03;;
52368;SDS011;38298;50.346;3.526;2022-11-11T13:32:14;8.38;;;3.08;;
52368;SDS011;38298;50.346;3.526;2022-11-11T13:34:41;5.97;;;3.17;;
52368;SDS011;38298;50.346;3.526;2022-11-11T13:37:07;4.22;;;3.28;;
52368;SDS011;38298;50.346;3.526;2022-11-11T13:39:43;6.22;;;3.17;;
52368;SDS011;38298;50.346;3.526;2022-11-11T13:42:11;4.28;;;3.05;;
52368;SDS011;38298;50.346;3.526;2022-11-11T13:44:59;7.55;;;3.35;;
52368;SDS011;38298;50.346;3.526;2022-11-11T13:47:26;5.00;;;2.70;;
52368;SDS011;38298;50.346;3.526;2022-11-11T13:49:55;3.67;;;2.90;;
52368;SDS011;38298;50.346;3.526;2022-11-11T13:52:27;5.43;;;3.15;;
52368;SDS011;38298;50.346;3.526;2022-11-11T13:55:02;3.35;;;2.45;;
52368;SDS011;38298;50.346;3.526;2022-11-11T13:57:30;3.22;;;2.58;;
52368;SDS011;38298;50.346;3.526;2022-11-11T14:02:32;2.97;;;2.17;;
52368;SDS011;38298;50.346;3.526;2022-11-11T14:12:46;3.85;;;2.28;;
52368;SDS011;38298;50.346;3.526;2022-11-11T14:15:35;4.35;;;2.70;;
52368;SDS011;38298;50.346;3.526;2022-11-11T14:17:58;3.22;;;2.42;;
52368;SDS011;38298;50.346;3.526;2022-11-11T14:20:34;3.72;;;2.38;;
52368;SDS011;38298;50.346;3.526;2022-11-11T14:25:43;6.57;;;2.35;;
52368;SDS011;38298;50.346;3.526;2022-11-11T14:30:48;4.07;;;2.40;;
52368;SDS011;38298;50.346;3.526;2022-11-11T14:35:43;4.30;;;2.42;;
52368;SDS011;38298;50.346;3.526;2022-11-11T14:38:17;3.50;;;2.67;;
52368;SDS011;38298;50.346;3.526;2022-11-11T14:40:45;6.78;;;2.97;;
52368;SDS011;38298;50.346;3.526;2022-11-11T14:43:44;4.70;;;2.65;;
52368;SDS011;38298;50.346;3.526;2022-11-11T14:46:10;6.63;;;3.60;;
52368;SDS011;38298;50.346;3.526;2022-11-11T14:54:03;17.52;;;8.60;;
52368;SDS011;38298;50.346;3.526;2022-11-11T14:56:30;28.38;;;12.13;;
52368;SDS011;38298;50.346;3.526;2022-11-11T14:58:58;12.65;;;6.18;;
52368;SDS011;38298;50.346;3.526;2022-11-11T15:01:29;6.47;;;4.28;;
52368;SDS011;38298;50.346;3.526;2022-11-11T15:03:55;6.82;;;4.03;;
52368;SDS011;38298;50.346;3.526;2022-11-11T15:06:23;4.75;;;3.30;;
52368;SDS011;38298;50.346;3.526;2022-11-11T15:09:04;7.38;;;3.72;;
52368;SDS011;38298;50.346;3.526;2022-11-11T15:21:57;5.90;;;3.70;;
52368;SDS011;38298;50.346;3.526;2022-11-11T15:34:52;11.35;;;5.32;;
52368;SDS011;38298;50.346;3.526;2022-11-11T15:37:20;8.50;;;4.38;;
52368;SDS011;38298;50.346;3.526;2022-11-11T15:39:48;8.35;;;4.65;;
52368;SDS011;38298;50.346;3.526;2022-11-11T15:42:29;7.57;;;4.78;;
52368;SDS011;38298;50.346;3.526;2022-11-11T15:45:00;9.85;;;5.03;;
52368;SDS011;38298;50.346;3.526;2022-11-11T15:47:27;6.45;;;4.50;;
52368;SDS011;38298;50.346;3.526;2022-11-11T15:49:54;9.55;;;5.38;;
52368;SDS011;38298;50.346;3.526;2022-11-11T15:52:25;7.50;;;5.07;;
52368;SDS011;38298;50.346;3.526;2022-11-11T15:54:51;6.82;;;5.28;;
52368;SDS011;38298;50.346;3.526;2022-11-11T15:59:47;5.15;;;4.45;;
52368;SDS011;38298;50.346;3.526;2022-11-11T16:02:15;7.75;;;5.20;;
52368;SDS011;38298;50.346;3.526;2022-11-11T16:04:53;8.13;;;5.13;;
52368;SDS011;38298;50.346;3.526;2022-11-11T16:07:20;24.02;;;5.57;;
52368;SDS011;38298;50.346;3.526;2022-11-11T16:09:48;7.43;;;5.10;;
52368;SDS011;38298;50.346;3.526;2022-11-11T16:12:16;9.63;;;5.00;;
52368;SDS011;38298;50.346;3.526;2022-11-11T16:14:46;13.93;;;7.40;;
52368;SDS011;38298;50.346;3.526;2022-11-11T16:17:13;11.27;;;6.97;;
52368;SDS011;38298;50.346;3.526;2022-11-11T16:19:40;7.43;;;5.10;;
52368;SDS011;38298;50.346;3.526;2022-11-11T16:22:09;8.50;;;5.40;;
52368;SDS011;38298;50.346;3.526;2022-11-11T16:24:37;12.63;;;5.28;;
52368;SDS011;38298;50.346;3.526;2022-11-11T16:27:04;10.10;;;6.32;;
52368;SDS011;38298;50.346;3.526;2022-11-11T16:29:37;9.05;;;5.47;;
52368;SDS011;38298;50.346;3.526;2022-11-11T16:34:48;10.35;;;5.72;;
52368;SDS011;38298;50.346;3.526;2022-11-11T16:37:15;8.50;;;5.78;;
52368;SDS011;38298;50.346;3.526;2022-11-11T16:39:42;11.48;;;7.03;;
52368;SDS011;38298;50.346;3.526;2022-11-11T16:52:25;10.55;;;6.63;;
52368;SDS011;38298;50.346;3.526;2022-11-11T16:54:55;9.27;;;6.60;;
52368;SDS011;38298;50.346;3.526;2022-11-11T16:57:29;11.13;;;6.47;;
52368;SDS011;38298;50.346;3.526;2022-11-11T16:59:58;13.02;;;6.72;;
52368;SDS011;38298;50.346;3.526;2022-11-11T17:02:26;13.20;;;7.50;;
52368;SDS011;38298;50.346;3.526;2022-11-11T17:04:56;13.30;;;7.43;;
52368;SDS011;38298;50.346;3.526;2022-11-11T17:07:30;17.00;;;8.07;;
52368;SDS011;38298;50.346;3.526;2022-11-11T17:12:33;13.82;;;7.65;;
52368;SDS011;38298;50.346;3.526;2022-11-11T17:14:59;18.35;;;8.55;;
52368;SDS011;38298;50.346;3.526;2022-11-11T17:17:25;14.63;;;8.07;;
52368;SDS011;38298;50.346;3.526;2022-11-11T17:20:27;13.05;;;7.07;;
52368;SDS011;38298;50.346;3.526;2022-11-11T17:25:13;12.25;;;7.03;;
52368;SDS011;38298;50.346;3.526;2022-11-11T17:27:39;11.55;;;7.25;;
52368;SDS011;38298;50.346;3.526;2022-11-11T17:30:06;11.48;;;7.32;;
52368;SDS011;38298;50.346;3.526;2022-11-11T17:32:32;11.52;;;7.07;;